createdAt,value
2023-10-03T00:01:46.731Z,13.47
2023-10-03T00:04:13.832Z,15.67
2023-10-03T00:06:42.915Z,15.70
2023-10-03T00:09:11.604Z,14.60
2023-10-03T00:11:38.697Z,13.80
2023-10-03T00:14:08.505Z,14.87
2023-10-03T00:16:36.557Z,16.07
2023-10-03T00:19:04.013Z,16.13
2023-10-03T00:21:31.322Z,12.43
2023-10-03T00:23:58.269Z,12.90
2023-10-03T00:26:25.333Z,13.10
2023-10-03T00:28:53.128Z,14.93
2023-10-03T00:31:21.106Z,13.13
2023-10-03T00:33:48.227Z,13.67
2023-10-03T00:36:17.982Z,15.23
2023-10-03T00:38:46.478Z,12.00
2023-10-03T00:41:14.503Z,15.00
2023-10-03T00:44:00.295Z,14.57
2023-10-03T00:46:28.603Z,12.53
2023-10-03T00:48:55.534Z,14.33
2023-10-03T00:51:24.223Z,15.90
2023-10-03T00:53:56.909Z,14.13
2023-10-03T00:56:24.519Z,15.37
2023-10-03T00:58:52.788Z,14.00
2023-10-03T01:01:19.843Z,15.43
2023-10-03T01:03:49.103Z,14.43
2023-10-03T01:06:16.646Z,15.43
2023-10-03T01:08:49.051Z,16.00
2023-10-03T01:11:18.684Z,13.57
2023-10-03T01:13:59.944Z,15.30
2023-10-03T01:16:33.691Z,13.53
2023-10-03T01:19:16.764Z,13.43
2023-10-03T01:21:43.716Z,14.67
2023-10-03T01:24:14.437Z,13.37
2023-10-03T01:26:41.333Z,13.57
2023-10-03T01:29:08.229Z,16.60
2023-10-03T01:31:35.066Z,12.33
2023-10-03T01:34:02.627Z,13.70
2023-10-03T01:36:30.759Z,14.23
2023-10-03T01:38:57.999Z,16.13
2023-10-03T01:41:25.095Z,15.33
2023-10-03T01:43:52.081Z,15.70
2023-10-03T01:46:19.099Z,13.90
2023-10-03T01:48:46.443Z,17.43
2023-10-03T01:51:13.366Z,13.90
2023-10-03T01:53:43.218Z,12.93
2023-10-03T01:56:10.646Z,13.93
2023-10-03T01:58:38.053Z,15.13
2023-10-03T02:01:05.055Z,14.07
2023-10-03T02:03:34.226Z,15.63
2023-10-03T02:06:01.879Z,17.00
2023-10-03T02:08:28.801Z,16.07
2023-10-03T02:10:56.684Z,18.13
2023-10-03T02:13:23.766Z,16.83
2023-10-03T02:15:55.941Z,17.63
2023-10-03T02:18:23.406Z,15.83
2023-10-03T02:20:53.438Z,15.30
2023-10-03T02:23:25.255Z,13.43
2023-10-03T02:26:06.861Z,15.50
2023-10-03T02:28:35.370Z,16.47
2023-10-03T02:31:04.661Z,12.90
2023-10-03T02:33:31.715Z,14.67
2023-10-03T02:35:58.863Z,13.80
2023-10-03T02:38:26.837Z,16.00
2023-10-03T02:41:01.584Z,13.10
2023-10-03T02:43:30.467Z,16.17
2023-10-03T02:45:57.488Z,14.23
2023-10-03T02:48:25.319Z,15.07
2023-10-03T02:50:53.230Z,12.93
2023-10-03T02:53:21.101Z,14.67
2023-10-03T02:55:49.485Z,15.13
2023-10-03T02:58:18.237Z,14.73
2023-10-03T03:00:47.432Z,15.77
2023-10-03T03:03:16.280Z,14.83
2023-10-03T03:05:44.768Z,16.20
2023-10-03T03:08:18.085Z,14.30
2023-10-03T03:11:12.379Z,14.57
2023-10-03T03:13:39.460Z,16.13
2023-10-03T03:16:16.560Z,14.20
2023-10-03T03:18:44.837Z,15.70
2023-10-03T03:21:17.947Z,16.60
2023-10-03T03:23:57.708Z,13.97
2023-10-03T03:26:37.742Z,16.77
2023-10-03T03:29:22.444Z,15.87
2023-10-03T03:31:53.601Z,14.00
2023-10-03T03:34:22.084Z,19.33
2023-10-03T03:36:51.206Z,13.63
2023-10-03T03:39:21.859Z,19.53
2023-10-03T03:41:51.038Z,14.90
2023-10-03T03:44:20.292Z,15.53
2023-10-03T03:46:48.011Z,16.13
2023-10-03T03:49:15.025Z,16.30
2023-10-03T03:51:41.961Z,17.77
2023-10-03T03:54:10.508Z,14.67
2023-10-03T03:56:37.913Z,19.47
2023-10-03T03:59:04.893Z,20.37
2023-10-03T04:01:31.876Z,15.50
2023-10-03T04:04:00.844Z,15.33
2023-10-03T04:06:27.936Z,15.07
2023-10-03T04:09:06.253Z,15.73
2023-10-03T04:11:35.430Z,14.97
2023-10-03T04:14:05.878Z,15.00
2023-10-03T04:16:39.728Z,17.17
2023-10-03T04:19:07.341Z,17.70
2023-10-03T04:21:34.622Z,14.63
2023-10-03T04:24:01.852Z,14.97
2023-10-03T04:26:29.751Z,16.87
2023-10-03T04:28:56.645Z,17.40
2023-10-03T04:31:23.552Z,17.30
2023-10-03T04:33:50.867Z,16.57
2023-10-03T04:36:18.890Z,16.63
2023-10-03T04:38:46.296Z,15.20
2023-10-03T04:41:13.573Z,15.70
2023-10-03T04:43:41.232Z,19.27
2023-10-03T04:46:09.517Z,16.63
2023-10-03T04:48:39.250Z,16.93
2023-10-03T04:51:06.547Z,17.97
2023-10-03T04:53:33.789Z,18.03
2023-10-03T04:56:00.882Z,17.97
2023-10-03T04:58:27.771Z,19.73
2023-10-03T05:00:54.926Z,17.33
2023-10-03T05:03:23.522Z,21.37
2023-10-03T05:05:51.105Z,18.77
2023-10-03T05:08:19.753Z,17.30
2023-10-03T05:10:48.473Z,18.00
2023-10-03T05:13:18.055Z,19.83
2023-10-03T05:15:46.169Z,17.17
2023-10-03T05:18:13.237Z,18.07
2023-10-03T05:20:40.317Z,19.87
2023-10-03T05:23:07.615Z,17.57
2023-10-03T05:25:44.126Z,17.83
2023-10-03T05:28:14.494Z,16.70
2023-10-03T05:30:42.112Z,19.90
2023-10-03T05:33:09.955Z,17.93
2023-10-03T05:35:38.846Z,17.13
2023-10-03T05:38:09.740Z,14.97
2023-10-03T05:40:37.293Z,19.83
2023-10-03T05:43:06.578Z,18.93
2023-10-03T05:45:36.287Z,18.50
2023-10-03T05:48:04.951Z,20.07
2023-10-03T05:50:34.066Z,18.40
2023-10-03T05:53:01.399Z,20.20
2023-10-03T05:55:28.307Z,20.47
2023-10-03T05:57:55.330Z,19.87
2023-10-03T06:00:22.677Z,16.73
2023-10-03T06:02:51.411Z,18.90
2023-10-03T06:05:18.725Z,22.00
2023-10-03T06:07:46.524Z,23.80
2023-10-03T06:10:16.135Z,22.73
2023-10-03T06:12:43.101Z,22.67
2023-10-03T06:15:10.341Z,27.53
2023-10-03T06:17:37.310Z,24.13
2023-10-03T06:20:06.708Z,24.73
2023-10-03T06:22:34.515Z,19.20
2023-10-03T06:25:01.437Z,19.63
2023-10-03T06:27:28.662Z,18.93
2023-10-03T06:29:55.749Z,17.53
2023-10-03T06:32:22.851Z,16.03
2023-10-03T06:34:49.684Z,16.73
2023-10-03T06:37:16.573Z,19.63
2023-10-03T06:39:43.526Z,19.43
2023-10-03T06:42:10.487Z,16.23
2023-10-03T06:44:42.005Z,17.53
2023-10-03T06:47:10.247Z,16.67
2023-10-03T06:49:37.330Z,16.70
2023-10-03T06:52:05.085Z,16.83
2023-10-03T06:54:32.250Z,16.03
2023-10-03T06:56:59.204Z,17.87
2023-10-03T06:59:26.304Z,16.87
2023-10-03T07:01:53.259Z,17.20
2023-10-03T07:04:20.630Z,15.33
2023-10-03T07:06:47.631Z,19.90
2023-10-03T07:09:15.339Z,14.70
2023-10-03T07:11:42.585Z,16.10
2023-10-03T07:14:14.000Z,17.30
2023-10-03T07:16:42.481Z,20.40
2023-10-03T07:19:15.133Z,19.50
2023-10-03T07:21:45.382Z,32.93
2023-10-03T07:24:12.374Z,36.10
2023-10-03T07:26:39.446Z,20.63
2023-10-03T07:29:07.433Z,17.43
2023-10-03T07:31:34.724Z,25.27
2023-10-03T07:34:02.390Z,16.73
2023-10-03T07:36:29.719Z,24.43
2023-10-03T07:38:56.659Z,15.67
2023-10-03T07:41:23.770Z,17.00
2023-10-03T07:43:53.582Z,17.60
2023-10-03T07:46:27.053Z,16.90
2023-10-03T07:48:55.738Z,19.07
2023-10-03T07:51:28.354Z,15.67
2023-10-03T07:53:57.272Z,17.40
2023-10-03T07:56:26.638Z,15.73
2023-10-03T07:58:57.651Z,16.67
2023-10-03T08:01:28.985Z,15.53
2023-10-03T08:04:00.426Z,15.00
2023-10-03T08:06:29.011Z,21.13
2023-10-03T08:09:02.684Z,15.17
2023-10-03T08:11:32.906Z,14.60
2023-10-03T08:14:01.523Z,12.43
2023-10-03T08:16:29.654Z,13.17
2023-10-03T08:18:59.272Z,17.13
2023-10-03T08:21:30.064Z,41.30
2023-10-03T08:23:57.964Z,22.73
2023-10-03T08:26:29.180Z,24.97
2023-10-03T08:29:05.546Z,17.00
2023-10-03T08:31:33.809Z,15.47
2023-10-03T08:34:02.104Z,18.37
2023-10-03T08:36:30.335Z,15.40
2023-10-03T08:39:06.632Z,15.70
2023-10-03T08:41:47.193Z,15.53
2023-10-03T08:44:15.057Z,14.70
2023-10-03T08:47:01.733Z,13.90
2023-10-03T08:49:39.331Z,24.97
2023-10-03T08:52:07.490Z,16.37
2023-10-03T08:54:38.993Z,12.00
2023-10-03T08:57:06.451Z,15.70
2023-10-03T08:59:33.740Z,10.67
2023-10-03T09:02:12.642Z,12.80
2023-10-03T09:04:42.343Z,16.63
2023-10-03T09:07:12.002Z,18.67
2023-10-03T09:09:46.669Z,16.53
2023-10-03T09:12:16.228Z,18.75
2023-10-03T09:14:43.236Z,17.33
2023-10-03T09:17:21.740Z,12.03
2023-10-03T09:19:51.374Z,12.53
2023-10-03T09:22:33.272Z,17.20
2023-10-03T09:25:00.319Z,15.27
2023-10-03T09:27:31.747Z,12.87
2023-10-03T09:30:00.410Z,15.43
2023-10-03T09:32:29.408Z,13.40
2023-10-03T09:35:00.812Z,16.10
2023-10-03T09:37:31.584Z,17.77
2023-10-03T09:40:00.967Z,15.47
2023-10-03T09:42:31.444Z,13.77
2023-10-03T09:45:01.482Z,15.30
2023-10-03T09:47:32.971Z,17.07
2023-10-03T09:50:05.496Z,17.63
2023-10-03T09:52:34.297Z,19.27
2023-10-03T09:55:18.579Z,15.17
2023-10-03T09:57:53.173Z,13.20
2023-10-03T10:00:40.425Z,16.13
2023-10-03T10:03:10.924Z,15.10
2023-10-03T10:05:42.429Z,19.17
2023-10-03T10:08:16.401Z,16.37
2023-10-03T10:10:43.358Z,18.27
2023-10-03T10:13:22.158Z,16.87
2023-10-03T10:16:13.514Z,14.70
2023-10-03T10:18:47.201Z,19.70
2023-10-03T10:21:32.692Z,22.17
2023-10-03T10:24:16.819Z,20.10
2023-10-03T10:26:51.071Z,15.50
2023-10-03T10:29:22.628Z,19.83
2023-10-03T10:32:08.636Z,18.37
2023-10-03T10:34:38.096Z,14.90
2023-10-03T10:37:13.156Z,16.80
2023-10-03T10:39:55.439Z,21.00
2023-10-03T10:42:26.313Z,16.93
2023-10-03T10:45:05.673Z,16.43
2023-10-03T10:47:43.787Z,18.50
2023-10-03T10:50:21.202Z,17.97
2023-10-03T10:53:03.474Z,21.97
2023-10-03T10:55:30.700Z,19.10
2023-10-03T10:58:14.006Z,15.70
2023-10-03T11:00:42.058Z,19.30
2023-10-03T11:03:09.801Z,19.27
2023-10-03T11:05:45.929Z,16.20
2023-10-03T11:08:13.154Z,15.37
2023-10-03T11:10:54.036Z,21.97
2023-10-03T11:13:24.953Z,18.87
2023-10-03T11:15:53.308Z,16.77
2023-10-03T11:18:34.416Z,20.40
2023-10-03T11:21:05.186Z,14.23
2023-10-03T11:23:33.116Z,17.73
2023-10-03T11:26:02.073Z,17.60
2023-10-03T11:28:30.339Z,18.73
2023-10-03T11:31:05.475Z,18.50
2023-10-03T11:36:09.887Z,17.50
2023-10-03T11:38:51.059Z,16.43
2023-10-03T11:41:34.908Z,18.57
2023-10-03T11:44:02.587Z,18.40
2023-10-03T11:46:44.845Z,17.70
2023-10-03T11:49:12.019Z,16.53
2023-10-03T11:51:40.071Z,16.50
2023-10-03T11:54:10.219Z,13.50
2023-10-03T11:56:47.633Z,30.40
2023-10-03T11:59:16.288Z,20.00
2023-10-03T12:01:57.704Z,16.40
2023-10-03T12:04:25.055Z,29.33
2023-10-03T12:06:51.994Z,27.47
2023-10-03T12:09:21.653Z,12.00
2023-10-03T12:11:49.902Z,15.30
2023-10-03T12:14:17.020Z,26.07
2023-10-03T12:16:46.953Z,183.67
2023-10-03T12:19:13.864Z,33.37
2023-10-03T12:21:41.167Z,64.23
2023-10-03T12:24:08.449Z,67.63
2023-10-03T12:26:35.860Z,59.17
2023-10-03T12:29:05.792Z,50.57
2023-10-03T12:31:34.906Z,49.77
2023-10-03T12:34:02.904Z,26.10
2023-10-03T12:36:31.206Z,27.90
2023-10-03T12:38:58.204Z,16.37
2023-10-03T12:41:31.367Z,31.90
2023-10-03T12:43:58.531Z,32.43
2023-10-03T12:46:25.432Z,17.47
2023-10-03T12:48:54.002Z,20.50
2023-10-03T12:51:21.033Z,19.47
2023-10-03T12:53:49.460Z,18.87
2023-10-03T12:56:16.373Z,16.40
2023-10-03T12:58:43.438Z,16.50
2023-10-03T13:01:14.063Z,20.07
2023-10-03T13:03:41.411Z,18.43
2023-10-03T13:06:10.367Z,24.07
2023-10-03T13:08:37.345Z,18.13
2023-10-03T13:11:07.149Z,21.77
2023-10-03T13:13:36.095Z,20.87
2023-10-03T13:16:03.110Z,19.90
2023-10-03T13:18:30.159Z,18.47
2023-10-03T13:20:57.234Z,25.83
2023-10-03T13:23:24.752Z,17.20
2023-10-03T13:25:52.433Z,24.10
2023-10-03T13:28:20.367Z,21.53
2023-10-03T13:30:47.748Z,21.63
2023-10-03T13:33:15.114Z,29.10
2023-10-03T13:35:42.801Z,22.87
2023-10-03T13:38:10.271Z,25.57
2023-10-03T13:40:37.568Z,45.17
2023-10-03T13:43:05.506Z,42.03
2023-10-03T13:45:33.678Z,216.70
2023-10-03T13:48:01.884Z,185.27
2023-10-03T13:50:31.077Z,113.70
2023-10-03T13:52:58.132Z,281.87
2023-10-03T13:55:27.864Z,63.60
2023-10-03T13:57:57.370Z,63.80
2023-10-03T14:00:26.120Z,35.60
2023-10-03T14:02:54.892Z,39.77
2023-10-03T14:05:22.399Z,48.60
2023-10-03T14:07:49.457Z,24.03
2023-10-03T14:10:18.384Z,25.60
2023-10-03T14:12:45.867Z,21.07
2023-10-03T14:15:15.413Z,26.27
2023-10-03T14:17:43.160Z,30.37
2023-10-03T14:20:13.235Z,27.90
2023-10-03T14:22:41.948Z,27.20
2023-10-03T14:25:13.854Z,33.10
2023-10-03T14:27:43.369Z,27.77
2023-10-03T14:30:11.360Z,32.63
2023-10-03T14:32:39.094Z,31.37
2023-10-03T14:35:08.813Z,36.60
2023-10-03T14:37:36.841Z,24.40
2023-10-03T14:40:10.486Z,32.27
2023-10-03T14:42:38.942Z,24.15
2023-10-03T14:45:09.740Z,25.30
2023-10-03T14:47:37.138Z,23.10
2023-10-03T14:50:05.903Z,54.77
2023-10-03T14:52:33.439Z,39.57
2023-10-03T14:55:00.603Z,37.10
2023-10-03T14:57:27.718Z,30.07
2023-10-03T14:59:55.921Z,50.03
2023-10-03T15:02:24.104Z,32.83
2023-10-03T15:04:51.874Z,35.87
2023-10-03T15:07:20.186Z,45.53
2023-10-03T15:09:47.096Z,34.47
2023-10-03T15:12:14.363Z,56.83
2023-10-03T15:14:42.049Z,29.27
2023-10-03T15:17:12.223Z,28.30
2023-10-03T15:19:39.931Z,30.43
2023-10-03T15:22:13.090Z,22.17
2023-10-03T15:24:41.194Z,23.87
2023-10-03T15:27:10.865Z,24.47
2023-10-03T15:29:38.264Z,30.83
2023-10-03T15:32:05.537Z,29.10
2023-10-03T15:34:33.622Z,24.77
2023-10-03T15:37:10.067Z,25.43
2023-10-03T15:39:37.385Z,26.97
2023-10-03T15:42:04.426Z,28.93
2023-10-03T15:44:31.444Z,35.03
2023-10-03T15:46:58.498Z,31.63
2023-10-03T15:49:25.749Z,26.37
2023-10-03T15:51:52.706Z,32.77
2023-10-03T15:54:19.656Z,40.67
2023-10-03T15:56:46.672Z,27.77
2023-10-03T15:59:15.005Z,30.03
2023-10-03T16:01:42.340Z,27.20
2023-10-03T16:04:10.201Z,27.50
2023-10-03T16:06:40.369Z,27.20
2023-10-03T16:09:14.284Z,24.63
2023-10-03T16:11:43.700Z,21.63
2023-10-03T16:14:15.737Z,23.70
2023-10-03T16:16:43.780Z,22.53
2023-10-03T16:19:12.297Z,31.17
2023-10-03T16:21:42.289Z,23.23
2023-10-03T16:24:10.930Z,26.90
2023-10-03T16:26:38.232Z,25.57
2023-10-03T16:29:05.565Z,25.13
2023-10-03T16:31:33.543Z,22.00
2023-10-03T16:34:01.360Z,23.30
2023-10-03T16:36:29.868Z,22.83
2023-10-03T16:38:56.822Z,25.77
2023-10-03T16:41:25.188Z,23.40
2023-10-03T16:43:52.338Z,22.83
2023-10-03T16:46:19.270Z,27.30
2023-10-03T16:48:46.326Z,20.47
2023-10-03T16:51:15.400Z,30.93
2023-10-03T16:53:44.201Z,24.53
2023-10-03T16:56:12.153Z,20.60
2023-10-03T16:58:39.195Z,19.80
2023-10-03T17:01:06.185Z,24.37
2023-10-03T17:03:34.672Z,25.00
2023-10-03T17:06:02.466Z,25.73
2023-10-03T17:08:30.423Z,18.90
2023-10-03T17:10:57.540Z,20.57
2023-10-03T17:13:24.441Z,21.67
2023-10-03T17:15:51.334Z,22.87
2023-10-03T17:18:18.354Z,16.43
2023-10-03T17:20:46.557Z,18.77
2023-10-03T17:23:13.485Z,17.93
2023-10-03T17:25:41.367Z,21.47
2023-10-03T17:28:08.484Z,19.67
2023-10-03T17:30:37.033Z,27.00
2023-10-03T17:33:05.655Z,21.30
2023-10-03T17:35:34.760Z,21.60
2023-10-03T17:38:02.019Z,23.07
2023-10-03T17:40:28.903Z,19.00
2023-10-03T17:43:00.307Z,17.07
2023-10-03T17:45:27.309Z,17.23
2023-10-03T17:47:54.867Z,20.17
2023-10-03T17:50:21.915Z,16.97
2023-10-03T17:52:49.621Z,21.07
2023-10-03T17:55:16.725Z,16.90
2023-10-03T17:57:45.723Z,17.67
2023-10-03T18:00:17.164Z,17.43
2023-10-03T18:02:49.701Z,17.37
2023-10-03T18:05:18.291Z,15.77
2023-10-03T18:07:47.235Z,18.17
2023-10-03T18:10:15.100Z,16.37
2023-10-03T18:12:45.484Z,17.30
2023-10-03T18:15:14.196Z,14.80
2023-10-03T18:17:42.194Z,15.17
2023-10-03T18:20:10.715Z,19.17
2023-10-03T18:22:40.137Z,17.30
2023-10-03T18:25:09.892Z,18.47
2023-10-03T18:27:37.360Z,18.53
2023-10-03T18:30:04.823Z,12.60
2023-10-03T18:32:31.718Z,8.20
2023-10-03T18:34:59.204Z,7.83
2023-10-03T18:37:26.223Z,11.70
2023-10-03T18:39:53.067Z,11.53
2023-10-03T18:42:21.485Z,9.23
2023-10-03T18:44:48.528Z,6.33
2023-10-03T18:47:15.513Z,9.83
2023-10-03T18:49:42.510Z,5.63
2023-10-03T18:52:10.477Z,9.33
2023-10-03T18:54:37.482Z,8.23
2023-10-03T18:57:05.332Z,10.10
2023-10-03T18:59:33.417Z,7.37
2023-10-03T19:02:00.741Z,9.03
2023-10-03T19:04:27.865Z,10.13
2023-10-03T19:06:55.282Z,12.70
2023-10-03T19:09:22.639Z,6.67
2023-10-03T19:11:49.810Z,7.03
2023-10-03T19:14:16.894Z,6.17
2023-10-03T19:16:45.826Z,7.93
2023-10-03T19:19:13.127Z,5.67
2023-10-03T19:21:40.219Z,7.80
2023-10-03T19:24:07.974Z,5.33
2023-10-03T19:26:37.283Z,8.00
2023-10-03T19:29:04.948Z,6.80
2023-10-03T19:31:32.293Z,7.43
2023-10-03T19:33:59.263Z,8.57
2023-10-03T19:36:26.341Z,4.50
2023-10-03T19:38:55.783Z,7.00
2023-10-03T19:41:23.884Z,4.43
2023-10-03T19:43:51.335Z,6.37
2023-10-03T19:46:20.431Z,3.97
2023-10-03T19:48:47.863Z,5.70
2023-10-03T19:51:17.541Z,7.20
2023-10-03T19:53:44.736Z,7.87
2023-10-03T19:56:17.075Z,8.70
2023-10-03T19:58:44.472Z,11.30
2023-10-03T20:01:19.531Z,9.77
2023-10-03T20:06:18.020Z,3.67
2023-10-03T20:08:45.515Z,9.63
2023-10-03T20:11:13.399Z,6.67
2023-10-03T20:13:44.130Z,8.40
2023-10-03T20:16:14.912Z,6.13
2023-10-03T20:18:42.488Z,11.13
2023-10-03T20:21:09.747Z,6.60
2023-10-03T20:23:36.864Z,4.73
2023-10-03T20:26:05.327Z,2.67
2023-10-03T20:28:32.302Z,7.03
2023-10-03T20:30:59.361Z,5.20
2023-10-03T20:33:26.504Z,2.50
2023-10-03T20:35:54.323Z,4.77
2023-10-03T20:38:23.525Z,6.40
2023-10-03T20:40:51.998Z,3.87
2023-10-03T20:43:19.917Z,7.43
2023-10-03T20:45:47.728Z,6.37
2023-10-03T20:48:15.385Z,2.37
2023-10-03T20:50:42.426Z,8.67
2023-10-03T20:53:09.286Z,8.43
2023-10-03T20:55:37.018Z,2.80
2023-10-03T20:58:04.555Z,8.53
2023-10-03T21:00:31.733Z,5.30
2023-10-03T21:02:58.939Z,4.20
2023-10-03T21:05:27.492Z,7.23
2023-10-03T21:07:55.410Z,4.47
2023-10-03T21:10:23.612Z,14.20
2023-10-03T21:12:51.410Z,2.37
2023-10-03T21:15:18.586Z,5.07
2023-10-03T21:17:45.545Z,3.23
2023-10-03T21:20:16.253Z,4.27
2023-10-03T21:22:43.253Z,6.63
2023-10-03T21:25:11.992Z,7.03
2023-10-03T21:27:39.821Z,5.53
2023-10-03T21:30:09.028Z,4.63
2023-10-03T21:32:36.219Z,6.20
2023-10-03T21:35:03.594Z,5.97
2023-10-03T21:37:30.594Z,6.10
2023-10-03T21:39:58.113Z,4.67
2023-10-03T21:42:28.545Z,6.43
2023-10-03T21:44:56.286Z,7.03
2023-10-03T21:47:23.242Z,3.70
2023-10-03T21:49:50.928Z,6.90
2023-10-03T21:52:18.911Z,8.47
2023-10-03T21:54:47.261Z,3.33
2023-10-03T21:57:16.786Z,4.53
2023-10-03T21:59:44.164Z,4.73
2023-10-03T22:02:11.269Z,5.53
2023-10-03T22:04:41.452Z,7.07
2023-10-03T22:07:10.745Z,4.40
2023-10-03T22:09:37.853Z,6.30
2023-10-03T22:12:05.127Z,7.57
2023-10-03T22:14:32.230Z,8.57
2023-10-03T22:16:59.277Z,5.07
2023-10-03T22:19:26.355Z,4.27
2023-10-03T22:21:53.413Z,9.70
2023-10-03T22:24:22.367Z,7.50
2023-10-03T22:26:50.713Z,5.87
2023-10-03T22:29:20.326Z,5.03
2023-10-03T22:31:47.431Z,5.40
2023-10-03T22:34:14.489Z,8.20
2023-10-03T22:36:41.594Z,6.40
2023-10-03T22:39:09.343Z,5.03
2023-10-03T22:41:36.562Z,4.27
2023-10-03T22:44:04.877Z,8.83
2023-10-03T22:46:32.117Z,5.20
2023-10-03T22:48:59.062Z,7.50
2023-10-03T22:51:26.635Z,5.77
2023-10-03T22:53:53.830Z,4.77
2023-10-03T22:56:26.177Z,4.70
2023-10-03T22:58:56.461Z,3.93
2023-10-03T23:01:23.384Z,6.53
2023-10-03T23:03:50.352Z,5.87
2023-10-03T23:06:17.910Z,4.27
2023-10-03T23:08:44.937Z,6.43
2023-10-03T23:11:12.982Z,7.33
2023-10-03T23:13:43.317Z,5.13
2023-10-03T23:16:10.511Z,6.50
2023-10-03T23:18:37.717Z,6.60
2023-10-03T23:21:04.898Z,8.37
2023-10-03T23:23:31.920Z,6.33
2023-10-03T23:25:59.646Z,8.10
2023-10-03T23:28:26.696Z,7.77
2023-10-03T23:30:53.547Z,6.93
2023-10-03T23:33:20.650Z,5.13
2023-10-03T23:35:48.015Z,9.83
2023-10-03T23:38:15.705Z,8.30
2023-10-03T23:40:43.015Z,7.50
2023-10-03T23:43:10.102Z,5.73
2023-10-03T23:45:37.869Z,6.97
2023-10-03T23:48:05.563Z,10.37
2023-10-03T23:50:34.132Z,4.80
2023-10-03T23:53:01.855Z,8.37
2023-10-03T23:55:28.838Z,10.53
2023-10-03T23:57:56.437Z,8.00
